sensor_id;sensor_type;location;lat;lon;timestamp;pressure;altitude;pressure_sealevel;temperature;humidity
50590;BME280;36547;50.514;30.840;2023-11-18T00:00:22;100400.05;;;3.40;79.01
50590;BME280;36547;50.514;30.840;2023-11-18T00:01:25;100406.14;;;3.42;79.02
50590;BME280;36547;50.514;30.840;2023-11-18T00:02:29;100406.14;;;3.42;79.01
50590;BME280;36547;50.514;30.840;2023-11-18T00:03:32;100403.59;;;3.38;78.97
50590;BME280;36547;50.514;30.840;2023-11-18T00:04:35;100402.72;;;3.37;79.02
50590;BME280;36547;50.514;30.840;2023-11-18T00:05:37;100405.33;;;3.39;79.04
50590;BME280;36547;50.514;30.840;2023-11-18T00:06:39;100408.84;;;3.38;79.08
50590;BME280;36547;50.514;30.840;2023-11-18T00:07:41;100404.46;;;3.38;79.08
50590;BME280;36547;50.514;30.840;2023-11-18T00:08:44;100407.09;;;3.38;79.16
50590;BME280;36547;50.514;30.840;2023-11-18T00:09:46;100407.98;;;3.37;79.13
50590;BME280;36547;50.514;30.840;2023-11-18T00:10:49;100402.72;;;3.37;79.27
50590;BME280;36547;50.514;30.840;2023-11-18T00:11:52;100404.48;;;3.37;79.31
50590;BME280;36547;50.514;30.840;2023-11-18T00:12:54;100406.24;;;3.36;79.25
50590;BME280;36547;50.514;30.840;2023-11-18T00:13:57;100406.22;;;3.38;79.32
50590;BME280;36547;50.514;30.840;2023-11-18T00:15:03;100402.72;;;3.37;79.37
50590;BME280;36547;50.514;30.840;2023-11-18T00:16:12;100400.70;;;3.51;79.42
50590;BME280;36547;50.514;30.840;2023-11-18T00:17:14;100394.92;;;3.33;79.55
50590;BME280;36547;50.514;30.840;2023-11-18T00:18:16;100400.94;;;3.39;79.54
50590;BME280;36547;50.514;30.840;2023-11-18T00:19:19;100404.41;;;3.41;79.45
50590;BME280;36547;50.514;30.840;2023-11-18T00:20:22;100406.14;;;3.42;79.37
50590;BME280;36547;50.514;30.840;2023-11-18T00:21:24;100403.49;;;3.44;79.36
50590;BME280;36547;50.514;30.840;2023-11-18T00:22:26;100402.54;;;3.46;79.30
50590;BME280;36547;50.514;30.840;2023-11-18T00:23:29;100399.02;;;3.47;79.18
50590;BME280;36547;50.514;30.840;2023-11-18T00:24:32;100406.91;;;3.47;79.27
50590;BME280;36547;50.514;30.840;2023-11-18T00:25:34;100399.91;;;3.46;79.30
50590;BME280;36547;50.514;30.840;2023-11-18T00:26:36;100408.72;;;3.45;79.31
50590;BME280;36547;50.514;30.840;2023-11-18T00:27:39;100398.12;;;3.48;79.27
50590;BME280;36547;50.514;30.840;2023-11-18T00:28:42;100399.02;;;3.47;79.26
50590;BME280;36547;50.514;30.840;2023-11-18T00:29:44;100400.86;;;3.44;79.27
50590;BME280;36547;50.514;30.840;2023-11-18T00:30:47;100399.91;;;3.46;79.39
50590;BME280;36547;50.514;30.840;2023-11-18T00:31:49;100403.52;;;3.42;79.47
50590;BME280;36547;50.514;30.840;2023-11-18T00:32:51;100406.14;;;3.42;79.47
50590;BME280;36547;50.514;30.840;2023-11-18T00:33:53;100396.45;;;3.46;79.47
50590;BME280;36547;50.514;30.840;2023-11-18T00:34:55;100397.34;;;3.45;79.49
50590;BME280;36547;50.514;30.840;2023-11-18T00:35:58;100401.70;;;3.46;79.47
50590;BME280;36547;50.514;30.840;2023-11-18T00:37:01;100402.63;;;3.43;79.33
50590;BME280;36547;50.514;30.840;2023-11-18T00:38:03;100398.27;;;3.42;79.40
50590;BME280;36547;50.514;30.840;2023-11-18T00:39:06;100396.58;;;3.38;79.48
50590;BME280;36547;50.514;30.840;2023-11-18T00:40:09;100405.30;;;3.40;79.65
50590;BME280;36547;50.514;30.840;2023-11-18T00:41:12;100400.94;;;3.39;79.77
50590;BME280;36547;50.514;30.840;2023-11-18T00:42:15;100408.82;;;3.39;79.76
50590;BME280;36547;50.514;30.840;2023-11-18T00:43:17;100402.67;;;3.40;79.80
50590;BME280;36547;50.514;30.840;2023-11-18T00:44:19;100402.67;;;3.40;79.82
50590;BME280;36547;50.514;30.840;2023-11-18T00:45:22;100394.74;;;3.43;79.71
50590;BME280;36547;50.514;30.840;2023-11-18T00:46:24;100397.38;;;3.43;79.49
50590;BME280;36547;50.514;30.840;2023-11-18T00:47:27;100395.64;;;3.42;79.60
50590;BME280;36547;50.514;30.840;2023-11-18T00:48:29;100393.02;;;3.42;79.62
50590;BME280;36547;50.514;30.840;2023-11-18T00:49:33;100397.40;;;3.42;79.61
50590;BME280;36547;50.514;30.840;2023-11-18T00:50:36;100398.29;;;3.41;79.72
50590;BME280;36547;50.514;30.840;2023-11-18T00:51:38;100394.82;;;3.39;79.79
50590;BME280;36547;50.514;30.840;2023-11-18T00:52:41;100392.17;;;3.40;79.82
50590;BME280;36547;50.514;30.840;2023-11-18T00:53:44;100400.94;;;3.39;79.84
50590;BME280;36547;50.514;30.840;2023-11-18T00:54:47;100394.82;;;3.39;79.85
50590;BME280;36547;50.514;30.840;2023-11-18T00:55:50;100386.91;;;3.40;79.80
50590;BME280;36547;50.514;30.840;2023-11-18T00:56:52;100388.65;;;3.41;79.72
50590;BME280;36547;50.514;30.840;2023-11-18T00:57:55;100394.80;;;3.40;79.74
50590;BME280;36547;50.514;30.840;2023-11-18T00:58:57;100383.45;;;3.38;79.65
50590;BME280;36547;50.514;30.840;2023-11-18T00:59:59;100387.81;;;3.39;79.72
50590;BME280;36547;50.514;30.840;2023-11-18T01:01:02;100385.18;;;3.39;79.77
50590;BME280;36547;50.514;30.840;2023-11-18T01:02:04;100387.83;;;3.38;79.80
50590;BME280;36547;50.514;30.840;2023-11-18T01:03:07;100383.39;;;3.41;79.90
50590;BME280;36547;50.514;30.840;2023-11-18T01:04:10;100386.89;;;3.42;79.82
50590;BME280;36547;50.514;30.840;2023-11-18T01:05:12;100377.22;;;3.44;79.79
50590;BME280;36547;50.514;30.840;2023-11-18T01:06:15;100380.72;;;3.44;79.77
50590;BME280;36547;50.514;30.840;2023-11-18T01:07:18;100382.45;;;3.45;79.76
50590;BME280;36547;50.514;30.840;2023-11-18T01:08:20;100382.39;;;3.47;79.69
50590;BME280;36547;50.514;30.840;2023-11-18T01:09:22;100377.14;;;3.47;79.65
50590;BME280;36547;50.514;30.840;2023-11-18T01:10:24;100382.37;;;3.48;79.60
50590;BME280;36547;50.514;30.840;2023-11-18T01:11:26;100379.73;;;3.48;79.50
50590;BME280;36547;50.514;30.840;2023-11-18T01:12:29;100388.52;;;3.47;79.51
50590;BME280;36547;50.514;30.840;2023-11-18T01:13:31;100385.02;;;3.47;79.53
50590;BME280;36547;50.514;30.840;2023-11-18T01:14:33;100384.12;;;3.48;79.56
50590;BME280;36547;50.514;30.840;2023-11-18T01:15:36;100383.34;;;3.44;79.55
50590;BME280;36547;50.514;30.840;2023-11-18T01:16:39;100379.85;;;3.44;79.61
50590;BME280;36547;50.514;30.840;2023-11-18T01:17:41;100378.09;;;3.44;79.72
50590;BME280;36547;50.514;30.840;2023-11-18T01:18:44;100378.90;;;3.46;79.72
50590;BME280;36547;50.514;30.840;2023-11-18T01:19:46;100374.57;;;3.45;79.61
50590;BME280;36547;50.514;30.840;2023-11-18T01:20:49;100375.44;;;3.46;79.48
50590;BME280;36547;50.514;30.840;2023-11-18T01:21:51;100376.27;;;3.46;79.52
50590;BME280;36547;50.514;30.840;2023-11-18T01:22:53;100378.09;;;3.44;79.57
50590;BME280;36547;50.514;30.840;2023-11-18T01:23:56;100383.32;;;3.46;79.57
50590;BME280;36547;50.514;30.840;2023-11-18T01:24:59;100378.00;;;3.47;79.51
50590;BME280;36547;50.514;30.840;2023-11-18T01:26:05;100376.27;;;3.46;79.39
50590;BME280;36547;50.514;30.840;2023-11-18T01:27:08;100381.52;;;3.46;79.42
50590;BME280;36547;50.514;30.840;2023-11-18T01:28:11;100381.52;;;3.46;79.46
50590;BME280;36547;50.514;30.840;2023-11-18T01:29:13;100371.97;;;3.44;79.47
50590;BME280;36547;50.514;30.840;2023-11-18T01:30:16;100374.52;;;3.47;79.42
50590;BME280;36547;50.514;30.840;2023-11-18T01:31:19;100376.27;;;3.46;79.31
50590;BME280;36547;50.514;30.840;2023-11-18T01:32:21;100378.00;;;3.47;79.28
50590;BME280;36547;50.514;30.840;2023-11-18T01:33:24;100378.00;;;3.47;79.24
50590;BME280;36547;50.514;30.840;2023-11-18T01:34:26;100381.52;;;3.46;79.39
50590;BME280;36547;50.514;30.840;2023-11-18T01:35:28;100375.47;;;3.44;79.34
50590;BME280;36547;50.514;30.840;2023-11-18T01:36:31;100381.59;;;3.45;79.32
50590;BME280;36547;50.514;30.840;2023-11-18T01:37:33;100379.83;;;3.45;79.33
50590;BME280;36547;50.514;30.840;2023-11-18T01:38:36;100379.77;;;3.47;79.38
50590;BME280;36547;50.514;30.840;2023-11-18T01:39:40;100384.16;;;3.46;79.40
50590;BME280;36547;50.514;30.840;2023-11-18T01:40:42;100385.02;;;3.47;79.42
50590;BME280;36547;50.514;30.840;2023-11-18T01:41:45;100378.90;;;3.46;79.49
50590;BME280;36547;50.514;30.840;2023-11-18T01:42:48;100381.61;;;3.43;79.27
50590;BME280;36547;50.514;30.840;2023-11-18T01:43:50;100387.73;;;3.44;79.33
50590;BME280;36547;50.514;30.840;2023-11-18T01:44:54;100383.39;;;3.41;79.41
50590;BME280;36547;50.514;30.840;2023-11-18T01:46:07;100386.86;;;3.43;79.48
50590;BME280;36547;50.514;30.840;2023-11-18T01:47:09;100386.86;;;3.43;79.51
50590;BME280;36547;50.514;30.840;2023-11-18T01:48:18;100386.78;;;3.46;79.47
50590;BME280;36547;50.514;30.840;2023-11-18T01:49:27;100389.41;;;3.46;79.45
50590;BME280;36547;50.514;30.840;2023-11-18T01:50:35;100387.73;;;3.44;79.39
50590;BME280;36547;50.514;30.840;2023-11-18T01:51:42;100385.08;;;3.45;79.27
50590;BME280;36547;50.514;30.840;2023-11-18T01:52:51;100381.66;;;3.40;79.23
50590;BME280;36547;50.514;30.840;2023-11-18T01:53:57;100385.16;;;3.41;79.42
50590;BME280;36547;50.514;30.840;2023-11-18T01:55:06;100379.01;;;3.42;79.46
50590;BME280;36547;50.514;30.840;2023-11-18T01:56:16;100385.18;;;3.39;79.49
50590;BME280;36547;50.514;30.840;2023-11-18T01:57:24;100382.53;;;3.41;79.51
50590;BME280;36547;50.514;30.840;2023-11-18T01:58:28;100382.53;;;3.41;79.44
50590;BME280;36547;50.514;30.840;2023-11-18T01:59:35;100386.91;;;3.40;79.46
50590;BME280;36547;50.514;30.840;2023-11-18T02:00:41;100386.86;;;3.43;79.50
50590;BME280;36547;50.514;30.840;2023-11-18T02:01:51;100393.91;;;3.41;79.44
50590;BME280;36547;50.514;30.840;2023-11-18T02:02:58;100388.65;;;3.41;79.44
50590;BME280;36547;50.514;30.840;2023-11-18T02:04:21;100386.89;;;3.42;79.46
50590;BME280;36547;50.514;30.840;2023-11-18T02:05:25;100386.86;;;3.43;79.28
50590;BME280;36547;50.514;30.840;2023-11-18T02:06:29;100393.02;;;3.42;79.26
50590;BME280;36547;50.514;30.840;2023-11-18T02:07:35;100395.64;;;3.42;79.20
50590;BME280;36547;50.514;30.840;2023-11-18T02:08:39;100388.65;;;3.41;79.24
50590;BME280;36547;50.514;30.840;2023-11-18T02:09:45;100398.27;;;3.42;79.23
50590;BME280;36547;50.514;30.840;2023-11-18T02:11:02;100399.16;;;3.41;79.30
50590;BME280;36547;50.514;30.840;2023-11-18T02:12:29;100400.02;;;3.42;79.25
50590;BME280;36547;50.514;30.840;2023-11-18T02:13:34;100400.94;;;3.39;79.25
50590;BME280;36547;50.514;30.840;2023-11-18T02:14:43;100389.56;;;3.39;79.20
50590;BME280;36547;50.514;30.840;2023-11-18T02:15:52;100400.08;;;3.39;79.17
50590;BME280;36547;50.514;30.840;2023-11-18T02:16:59;100391.33;;;3.38;79.20
50590;BME280;36547;50.514;30.840;2023-11-18T02:18:06;100394.00;;;3.35;79.30
50590;BME280;36547;50.514;30.840;2023-11-18T02:19:23;100397.55;;;3.33;79.17
50590;BME280;36547;50.514;30.840;2023-11-18T02:20:30;100392.30;;;3.33;79.31
50590;BME280;36547;50.514;30.840;2023-11-18T02:21:37;100387.97;;;3.32;79.36
50590;BME280;36547;50.514;30.840;2023-11-18T02:22:45;100394.05;;;3.32;79.35
50590;BME280;36547;50.514;30.840;2023-11-18T02:23:50;100394.05;;;3.32;79.41
50590;BME280;36547;50.514;30.840;2023-11-18T02:24:57;100393.22;;;3.32;79.39
50590;BME280;36547;50.514;30.840;2023-11-18T02:26:01;100394.98;;;3.31;79.36
50590;BME280;36547;50.514;30.840;2023-11-18T02:27:07;100390.48;;;3.36;79.42
50590;BME280;36547;50.514;30.840;2023-11-18T02:28:12;100396.68;;;3.32;79.45
50590;BME280;36547;50.514;30.840;2023-11-18T02:29:15;100396.58;;;3.38;79.47
50590;BME280;36547;50.514;30.840;2023-11-18T02:30:21;100396.58;;;3.38;79.28
50590;BME280;36547;50.514;30.840;2023-11-18T02:31:33;100396.58;;;3.38;79.20
50590;BME280;36547;50.514;30.840;2023-11-18T02:32:47;100400.97;;;3.38;79.15
50590;BME280;36547;50.514;30.840;2023-11-18T02:36:35;100401.81;;;3.40;79.03
50590;BME280;36547;50.514;30.840;2023-11-18T02:37:47;100401.81;;;3.40;79.06
50590;BME280;36547;50.514;30.840;2023-11-18T02:38:53;100402.72;;;3.37;79.02
50590;BME280;36547;50.514;30.840;2023-11-18T02:40:02;100397.45;;;3.39;79.07
50590;BME280;36547;50.514;30.840;2023-11-18T02:41:13;100402.65;;;3.42;79.09
50590;BME280;36547;50.514;30.840;2023-11-18T02:42:17;100400.89;;;3.42;78.98
50590;BME280;36547;50.514;30.840;2023-11-18T02:43:29;100403.54;;;3.41;78.99
50590;BME280;36547;50.514;30.840;2023-11-18T02:44:54;100400.94;;;3.39;78.87
50590;BME280;36547;50.514;30.840;2023-11-18T02:46:04;100400.94;;;3.39;78.71
50590;BME280;36547;50.514;30.840;2023-11-18T02:47:16;100402.72;;;3.37;78.71
50590;BME280;36547;50.514;30.840;2023-11-18T02:48:22;100406.24;;;3.36;78.74
50590;BME280;36547;50.514;30.840;2023-11-18T02:49:28;100406.29;;;3.33;78.79
50590;BME280;36547;50.514;30.840;2023-11-18T02:50:30;100408.98;;;3.32;78.86
50590;BME280;36547;50.514;30.840;2023-11-18T02:51:36;100402.86;;;3.31;79.01
50590;BME280;36547;50.514;30.840;2023-11-18T02:52:41;100403.75;;;3.30;78.98
50590;BME280;36547;50.514;30.840;2023-11-18T02:53:48;100402.86;;;3.31;78.95
50590;BME280;36547;50.514;30.840;2023-11-18T02:54:56;100408.11;;;3.31;79.02
50590;BME280;36547;50.514;30.840;2023-11-18T02:55:59;100399.39;;;3.29;79.01
50590;BME280;36547;50.514;30.840;2023-11-18T02:57:04;100402.03;;;3.28;79.02
50590;BME280;36547;50.514;30.840;2023-11-18T02:58:11;100403.77;;;3.29;79.13
50590;BME280;36547;50.514;30.840;2023-11-18T02:59:32;100406.37;;;3.30;79.13
50590;BME280;36547;50.514;30.840;2023-11-18T03:00:42;100406.37;;;3.30;79.01
50590;BME280;36547;50.514;30.840;2023-11-18T03:02:46;100402.67;;;3.40;79.01
50590;BME280;36547;50.514;30.840;2023-11-18T03:03:48;100404.61;;;3.31;79.04
50590;BME280;36547;50.514;30.840;2023-11-18T03:04:50;100400.30;;;3.27;79.07
50590;BME280;36547;50.514;30.840;2023-11-18T03:05:53;100402.06;;;3.26;79.14
50590;BME280;36547;50.514;30.840;2023-11-18T03:06:55;100401.17;;;3.27;79.20
50590;BME280;36547;50.514;30.840;2023-11-18T03:07:57;100408.20;;;3.25;79.15
50590;BME280;36547;50.514;30.840;2023-11-18T03:08:59;100397.70;;;3.25;79.29
50590;BME280;36547;50.514;30.840;2023-11-18T03:10:02;100405.60;;;3.24;79.32
50590;BME280;36547;50.514;30.840;2023-11-18T03:11:04;100408.25;;;3.22;79.44
50590;BME280;36547;50.514;30.840;2023-11-18T03:12:07;100406.47;;;3.24;79.45
50590;BME280;36547;50.514;30.840;2023-11-18T03:13:09;100401.27;;;3.21;79.47
50590;BME280;36547;50.514;30.840;2023-11-18T03:14:11;100407.39;;;3.22;79.55
50590;BME280;36547;50.514;30.840;2023-11-18T03:15:15;100401.27;;;3.21;79.55
50590;BME280;36547;50.514;30.840;2023-11-18T03:16:18;100405.63;;;3.22;79.57
50590;BME280;36547;50.514;30.840;2023-11-18T03:17:20;100403.89;;;3.21;79.66
50590;BME280;36547;50.514;30.840;2023-11-18T03:18:24;100409.13;;;3.23;79.76
50590;BME280;36547;50.514;30.840;2023-11-18T03:19:26;100409.98;;;3.23;79.82
50590;BME280;36547;50.514;30.840;2023-11-18T03:20:29;100404.86;;;3.17;79.74
50590;BME280;36547;50.514;30.840;2023-11-18T03:21:31;100406.52;;;3.21;79.77
50590;BME280;36547;50.514;30.840;2023-11-18T03:22:33;100414.39;;;3.21;79.60
50590;BME280;36547;50.514;30.840;2023-11-18T03:23:36;100417.00;;;3.23;79.62
50590;BME280;36547;50.514;30.840;2023-11-18T03:24:39;100415.28;;;3.20;79.61
50590;BME280;36547;50.514;30.840;2023-11-18T03:25:42;100410.92;;;3.19;79.73
50590;BME280;36547;50.514;30.840;2023-11-18T03:26:44;100413.55;;;3.19;79.76
50590;BME280;36547;50.514;30.840;2023-11-18T03:27:46;100408.30;;;3.19;79.68
50590;BME280;36547;50.514;30.840;2023-11-18T03:28:48;100410.06;;;3.18;79.62
50590;BME280;36547;50.514;30.840;2023-11-18T03:29:50;100416.17;;;3.19;79.61
50590;BME280;36547;50.514;30.840;2023-11-18T03:30:54;100414.42;;;3.19;79.61
50590;BME280;36547;50.514;30.840;2023-11-18T03:31:57;100416.17;;;3.19;79.61
50590;BME280;36547;50.514;30.840;2023-11-18T03:32:59;100417.06;;;3.18;79.55
50590;BME280;36547;50.514;30.840;2023-11-18T03:34:02;100411.01;;;3.16;79.50
50590;BME280;36547;50.514;30.840;2023-11-18T03:36:12;100411.72;;;3.24;79.45
50590;BME280;36547;50.514;30.840;2023-11-18T03:37:14;100411.94;;;3.12;79.52
50590;BME280;36547;50.514;30.840;2023-11-18T03:38:18;100405.83;;;3.11;79.51
50590;BME280;36547;50.514;30.840;2023-11-18T03:39:20;100406.69;;;3.12;79.53
50590;BME280;36547;50.514;30.840;2023-11-18T03:40:22;100401.44;;;3.12;79.55
50590;BME280;36547;50.514;30.840;2023-11-18T03:41:24;100406.69;;;3.12;79.59
50590;BME280;36547;50.514;30.840;2023-11-18T03:42:26;100404.95;;;3.11;79.46
50590;BME280;36547;50.514;30.840;2023-11-18T03:43:29;100403.27;;;3.07;79.44
50590;BME280;36547;50.514;30.840;2023-11-18T03:44:31;100409.41;;;3.06;79.41
50590;BME280;36547;50.514;30.840;2023-11-18T03:45:33;100407.70;;;3.03;79.41
50590;BME280;36547;50.514;30.840;2023-11-18T03:46:37;100398.14;;;3.01;79.56
50590;BME280;36547;50.514;30.840;2023-11-18T03:47:40;100402.52;;;3.00;79.70
50590;BME280;36547;50.514;30.840;2023-11-18T03:48:44;100403.44;;;2.98;79.64
50590;BME280;36547;50.514;30.840;2023-11-18T03:49:47;100398.19;;;2.98;79.67
50590;BME280;36547;50.514;30.840;2023-11-18T03:50:50;100398.19;;;2.98;79.74
50590;BME280;36547;50.514;30.840;2023-11-18T03:51:52;100406.95;;;2.97;79.77
50590;BME280;36547;50.514;30.840;2023-11-18T03:52:54;100399.13;;;2.94;79.76
50590;BME280;36547;50.514;30.840;2023-11-18T03:53:57;100409.64;;;2.92;79.83
50590;BME280;36547;50.514;30.840;2023-11-18T03:55:00;100399.17;;;2.91;79.86
50590;BME280;36547;50.514;30.840;2023-11-18T03:56:02;100400.05;;;2.90;80.02
50590;BME280;36547;50.514;30.840;2023-11-18T03:57:05;100400.03;;;2.91;79.98
50590;BME280;36547;50.514;30.840;2023-11-18T03:58:07;100403.57;;;2.89;80.01
50590;BME280;36547;50.514;30.840;2023-11-18T03:59:09;100397.51;;;2.87;80.08
50590;BME280;36547;50.514;30.840;2023-11-18T04:00:16;100403.57;;;2.89;80.15
50590;BME280;36547;50.514;30.840;2023-11-18T04:01:24;100409.77;;;2.86;80.17
50590;BME280;36547;50.514;30.840;2023-11-18T04:02:26;100400.17;;;2.83;80.10
50590;BME280;36547;50.514;30.840;2023-11-18T04:03:29;100409.84;;;2.80;80.13
50590;BME280;36547;50.514;30.840;2023-11-18T04:04:31;100409.87;;;2.78;80.19
50590;BME280;36547;50.514;30.840;2023-11-18T04:05:35;100410.78;;;2.76;80.22
50590;BME280;36547;50.514;30.840;2023-11-18T04:06:37;100408.17;;;2.74;80.38
50590;BME280;36547;50.514;30.840;2023-11-18T04:07:39;100416.05;;;2.74;80.44
50590;BME280;36547;50.514;30.840;2023-11-18T04:08:45;100406.42;;;2.75;80.47
50590;BME280;36547;50.514;30.840;2023-11-18T04:09:48;100416.05;;;2.74;80.45
50590;BME280;36547;50.514;30.840;2023-11-18T04:10:50;100405.63;;;2.71;80.48
50590;BME280;36547;50.514;30.840;2023-11-18T04:11:53;100417.86;;;2.72;80.54
50590;BME280;36547;50.514;30.840;2023-11-18T04:12:55;100410.88;;;2.71;80.55
50590;BME280;36547;50.514;30.840;2023-11-18T04:13:58;100414.34;;;2.73;80.53
50590;BME280;36547;50.514;30.840;2023-11-18T04:15:00;100409.14;;;2.70;80.40
50590;BME280;36547;50.514;30.840;2023-11-18T04:16:03;100416.13;;;2.71;80.39
50590;BME280;36547;50.514;30.840;2023-11-18T04:17:05;100411.78;;;2.69;80.48
50590;BME280;36547;50.514;30.840;2023-11-18T04:18:09;100414.42;;;2.67;80.46
50590;BME280;36547;50.514;30.840;2023-11-18T04:19:11;100417.05;;;2.67;80.48
50590;BME280;36547;50.514;30.840;2023-11-18T04:20:14;100426.66;;;2.68;80.59
50590;BME280;36547;50.514;30.840;2023-11-18T04:21:17;100424.02;;;2.70;80.62
50590;BME280;36547;50.514;30.840;2023-11-18T04:22:19;100429.28;;;2.68;80.65
50590;BME280;36547;50.514;30.840;2023-11-18T04:23:21;100424.96;;;2.64;80.63
50590;BME280;36547;50.514;30.840;2023-11-18T04:24:23;100433.67;;;2.66;80.67
50590;BME280;36547;50.514;30.840;2023-11-18T04:25:25;100437.19;;;2.65;80.66
50590;BME280;36547;50.514;30.840;2023-11-18T04:26:28;100431.94;;;2.65;80.66
50590;BME280;36547;50.514;30.840;2023-11-18T04:27:30;100435.45;;;2.64;80.59
50590;BME280;36547;50.514;30.840;2023-11-18T04:28:33;100439.83;;;2.64;80.67
50590;BME280;36547;50.514;30.840;2023-11-18T04:29:35;100441.55;;;2.66;80.74
50590;BME280;36547;50.514;30.840;2023-11-18T04:30:38;100438.03;;;2.67;80.62
50590;BME280;36547;50.514;30.840;2023-11-18T04:31:40;100435.44;;;2.66;80.55
50590;BME280;36547;50.514;30.840;2023-11-18T04:32:42;100433.67;;;2.66;80.56
50590;BME280;36547;50.514;30.840;2023-11-18T04:33:46;100437.15;;;2.68;80.56
50590;BME280;36547;50.514;30.840;2023-11-18T04:34:48;100441.55;;;2.66;80.44
50590;BME280;36547;50.514;30.840;2023-11-18T04:35:51;100440.66;;;2.67;80.42
50590;BME280;36547;50.514;30.840;2023-11-18T04:36:53;100435.41;;;2.67;80.42
50590;BME280;36547;50.514;30.840;2023-11-18T04:37:56;100438.02;;;2.69;80.48
50590;BME280;36547;50.514;30.840;2023-11-18T04:38:59;100442.40;;;2.68;80.51
50590;BME280;36547;50.514;30.840;2023-11-18T04:40:03;100443.24;;;2.70;80.43
50590;BME280;36547;50.514;30.840;2023-11-18T04:41:06;100440.63;;;2.70;80.45
50590;BME280;36547;50.514;30.840;2023-11-18T04:42:08;100445.00;;;2.70;80.47
50590;BME280;36547;50.514;30.840;2023-11-18T04:43:11;100440.63;;;2.70;80.50
50590;BME280;36547;50.514;30.840;2023-11-18T04:44:14;100437.98;;;2.72;80.49
50590;BME280;36547;50.514;30.840;2023-11-18T04:45:17;100443.16;;;2.75;80.48
50590;BME280;36547;50.514;30.840;2023-11-18T04:46:19;100438.77;;;2.75;80.46
50590;BME280;36547;50.514;30.840;2023-11-18T04:47:22;100444.87;;;2.77;80.39
50590;BME280;36547;50.514;30.840;2023-11-18T04:48:24;100443.98;;;2.78;80.38
50590;BME280;36547;50.514;30.840;2023-11-18T04:49:26;100443.07;;;2.81;80.26
50590;BME280;36547;50.514;30.840;2023-11-18T04:50:29;100452.66;;;2.83;80.11
50590;BME280;36547;50.514;30.840;2023-11-18T04:51:31;100450.92;;;2.82;80.00
50590;BME280;36547;50.514;30.840;2023-11-18T04:52:33;100456.21;;;2.79;79.98
50590;BME280;36547;50.514;30.840;2023-11-18T04:53:36;100450.08;;;2.80;80.03
50590;BME280;36547;50.514;30.840;2023-11-18T04:55:50;100456.05;;;2.89;80.03
50590;BME280;36547;50.514;30.840;2023-11-18T04:56:53;100456.25;;;2.76;80.13
50590;BME280;36547;50.514;30.840;2023-11-18T04:57:56;100456.25;;;2.76;80.19
50590;BME280;36547;50.514;30.840;2023-11-18T04:58:58;100454.48;;;2.78;80.12
50590;BME280;36547;50.514;30.840;2023-11-18T05:00:02;100457.08;;;2.80;80.04
50590;BME280;36547;50.514;30.840;2023-11-18T05:01:05;100460.55;;;2.82;79.93
50590;BME280;36547;50.514;30.840;2023-11-18T05:02:07;100464.06;;;2.81;79.91
50590;BME280;36547;50.514;30.840;2023-11-18T05:03:10;100462.34;;;2.78;79.95
50590;BME280;36547;50.514;30.840;2023-11-18T05:04:14;100468.45;;;2.80;79.99
50590;BME280;36547;50.514;30.840;2023-11-18T05:05:17;100459.72;;;2.78;79.81
50590;BME280;36547;50.514;30.840;2023-11-18T05:06:20;100463.23;;;2.77;79.77
50590;BME280;36547;50.514;30.840;2023-11-18T05:07:22;100466.73;;;2.78;79.65
50590;BME280;36547;50.514;30.840;2023-11-18T05:08:25;100473.73;;;2.77;79.54
50590;BME280;36547;50.514;30.840;2023-11-18T05:09:28;100468.48;;;2.77;79.56
50590;BME280;36547;50.514;30.840;2023-11-18T05:10:30;100468.50;;;2.76;79.60
50590;BME280;36547;50.514;30.840;2023-11-18T05:11:33;100470.26;;;2.75;79.63
50590;BME280;36547;50.514;30.840;2023-11-18T05:12:36;100473.77;;;2.74;79.50
50590;BME280;36547;50.514;30.840;2023-11-18T05:13:38;100475.56;;;2.74;79.31
50590;BME280;36547;50.514;30.840;2023-11-18T05:14:41;100475.58;;;2.72;79.12
50590;BME280;36547;50.514;30.840;2023-11-18T05:15:43;100479.98;;;2.70;79.07
50590;BME280;36547;50.514;30.840;2023-11-18T05:16:46;100470.34;;;2.71;79.16
50590;BME280;36547;50.514;30.840;2023-11-18T05:17:49;100477.35;;;2.70;79.34
50590;BME280;36547;50.514;30.840;2023-11-18T05:18:51;100474.73;;;2.70;79.47
50590;BME280;36547;50.514;30.840;2023-11-18T05:19:53;100478.22;;;2.71;79.34
50590;BME280;36547;50.514;30.840;2023-11-18T05:20:57;100480.00;;;2.69;79.32
50590;BME280;36547;50.514;30.840;2023-11-18T05:21:59;100487.00;;;2.68;79.33
50590;BME280;36547;50.514;30.840;2023-11-18T05:23:01;100494.87;;;2.68;79.28
50590;BME280;36547;50.514;30.840;2023-11-18T05:24:04;100487.88;;;2.67;79.20
50590;BME280;36547;50.514;30.840;2023-11-18T05:25:06;100491.39;;;2.66;79.11
50590;BME280;36547;50.514;30.840;2023-11-18T05:26:09;100489.66;;;2.65;79.07
50590;BME280;36547;50.514;30.840;2023-11-18T05:27:11;100484.41;;;2.65;79.17
50590;BME280;36547;50.514;30.840;2023-11-18T05:28:15;100489.66;;;2.65;79.08
50590;BME280;36547;50.514;30.840;2023-11-18T05:29:18;100495.77;;;2.66;79.08
50590;BME280;36547;50.514;30.840;2023-11-18T05:30:21;100491.39;;;2.66;79.01
50590;BME280;36547;50.514;30.840;2023-11-18T05:31:23;100492.27;;;2.67;78.96
50590;BME280;36547;50.514;30.840;2023-11-18T05:32:29;100498.41;;;2.64;78.95
50590;BME280;36547;50.514;30.840;2023-11-18T05:33:31;100498.45;;;2.61;79.03
50590;BME280;36547;50.514;30.840;2023-11-18T05:34:33;100506.30;;;2.63;79.10
50590;BME280;36547;50.514;30.840;2023-11-18T05:35:35;100501.05;;;2.63;79.17
50590;BME280;36547;50.514;30.840;2023-11-18T05:36:38;100501.13;;;2.60;79.21
50590;BME280;36547;50.514;30.840;2023-11-18T05:37:41;100496.67;;;2.63;79.20
50590;BME280;36547;50.514;30.840;2023-11-18T05:38:43;100507.17;;;2.63;79.06
50590;BME280;36547;50.514;30.840;2023-11-18T05:39:46;100501.91;;;2.65;78.96